Time;durP1;ratioP1;P1;durP2;ratioP2;P2;SDS_P1;SDS_P2;PMS_P1;PMS_P2;Temp;Humidity;BMP_temperature;BMP_pressure;BME280_temperature;BME280_humidity;BME280_pressure;Samples;Min_cycle;Max_cycle;Signal;HPM_P1;HPM_P2
2024/02/14 00:00:15;;;;;;;;;;;17.80;42.80;;;;;;1542281;76;694;-69
2024/02/14 00:02:17;;;;;;;;;;;17.80;42.70;;;;;;1556437;74;1920;-69
2024/02/14 00:04:18;;;;;;;;;;;17.80;42.70;;;;;;1552760;75;1158;-70
2024/02/14 00:06:20;;;;;;;;;;;17.80;42.80;;;;;;1559039;75;731;-69
2024/02/14 00:08:22;;;;;;;;;;;17.80;42.70;;;;;;1545972;75;1416;-70
2024/02/14 00:10:24;;;;;;;;;;;17.80;42.70;;;;;;1533981;75;639;-71
2024/02/14 00:12:26;;;;;;;;;;;17.80;42.80;;;;;;1542732;75;736;-69
2024/02/14 00:14:28;;;;;;;;;;;17.80;42.70;;;;;;1541763;76;1245;-69
2024/02/14 00:16:32;;;;;;;;;;;17.80;42.70;;;;;;1544786;75;574;-69
2024/02/14 00:18:34;;;;;;;;;;;17.80;42.80;;;;;;1551358;76;701;-70
2024/02/14 00:20:36;;;;;;;;;;;17.80;42.70;;;;;;1545632;75;695;-68
2024/02/14 00:22:40;;;;;;;;;;;17.80;42.70;;;;;;1543616;76;1913;-71
2024/02/14 00:24:42;;;;;;;;;;;17.80;42.70;;;;;;1539224;75;1146;-68
2024/02/14 00:26:46;;;;;;;;;;;17.80;42.70;;;;;;1545401;74;675;-70
2024/02/14 00:28:48;;;;;;;;;;;17.80;42.80;;;;;;1545666;76;704;-69
2024/02/14 00:30:49;;;;;;;;;;;17.80;42.70;;;;;;1538209;75;679;-70
2024/02/14 00:32:51;;;;;;;;;;;17.70;42.80;;;;;;1552174;76;661;-69
2024/02/14 00:34:53;;;;;;;;;;;17.70;42.70;;;;;;1543150;75;1025;-71
2024/02/14 00:36:55;;;;;;;;;;;17.80;42.70;;;;;;1543063;76;780;-68
2024/02/14 00:38:57;;;;;;;;;;;17.80;42.80;;;;;;1534037;76;749;-69
2024/02/14 00:40:59;;;;;;;;;;;17.80;42.80;;;;;;1537719;76;706;-69
2024/02/14 00:43:01;;;;;;;;;;;17.80;42.80;;;;;;1543446;76;1928;-70
2024/02/14 00:45:03;;;;;;;;;;;17.80;42.70;;;;;;1543330;76;656;-71
2024/02/14 00:47:05;;;;;;;;;;;17.80;42.80;;;;;;1530489;75;789;-69
2024/02/14 00:49:06;;;;;;;;;;;17.80;42.80;;;;;;1543902;76;731;-69
2024/02/14 00:51:08;;;;;;;;;;;17.80;42.70;;;;;;1541948;75;671;-71
2024/02/14 00:53:10;;;;;;;;;;;17.80;42.70;;;;;;1541357;75;1128;-69
2024/02/14 00:55:12;;;;;;;;;;;17.80;42.70;;;;;;1543437;75;823;-70
2024/02/14 00:57:15;;;;;;;;;;;17.80;42.70;;;;;;1551005;75;645;-70
2024/02/14 00:59:17;;;;;;;;;;;17.80;42.70;;;;;;1552425;75;694;-68
2024/02/14 01:01:19;;;;;;;;;;;17.80;42.70;;;;;;1550226;76;708;-71
2024/02/14 01:03:21;;;;;;;;;;;17.80;42.70;;;;;;1545966;76;1937;-70
2024/02/14 01:05:23;;;;;;;;;;;17.80;42.70;;;;;;1553241;75;737;-70
2024/02/14 01:07:25;;;;;;;;;;;17.80;42.70;;;;;;1548153;76;1307;-70
2024/02/14 01:09:27;;;;;;;;;;;17.80;42.80;;;;;;1542791;76;663;-69
2024/02/14 01:11:29;;;;;;;;;;;17.80;42.80;;;;;;1546838;76;679;-70
2024/02/14 01:13:31;;;;;;;;;;;17.80;42.70;;;;;;1560152;76;1177;-70
2024/02/14 01:15:37;;;;;;;;;;;17.80;42.70;;;;;;1554878;76;697;-69
2024/02/14 01:17:38;;;;;;;;;;;17.80;42.80;;;;;;1546871;75;924;-69
2024/02/14 01:19:40;;;;;;;;;;;17.80;42.70;;;;;;1545642;76;719;-69
2024/02/14 01:21:41;;;;;;;;;;;17.80;42.70;;;;;;1550184;75;1941;-68
2024/02/14 01:23:43;;;;;;;;;;;17.80;42.70;;;;;;1550888;75;1180;-71
2024/02/14 01:25:45;;;;;;;;;;;17.80;42.80;;;;;;1543795;76;711;-71
2024/02/14 01:27:48;;;;;;;;;;;17.80;42.70;;;;;;1550771;75;954;-69
2024/02/14 01:29:50;;;;;;;;;;;17.80;42.70;;;;;;1549909;75;687;-70
2024/02/14 01:31:52;;;;;;;;;;;17.80;42.70;;;;;;1543363;76;684;-70
2024/02/14 01:33:54;;;;;;;;;;;17.80;42.70;;;;;;1547100;76;1142;-69
2024/02/14 01:35:57;;;;;;;;;;;17.80;42.70;;;;;;1552912;76;768;-70
2024/02/14 01:37:59;;;;;;;;;;;17.80;42.70;;;;;;1551405;76;803;-70
2024/02/14 01:40:01;;;;;;;;;;;17.80;42.70;;;;;;1538837;75;665;-70
2024/02/14 01:42:06;;;;;;;;;;;17.80;42.70;;;;;;1545388;76;1944;-69
2024/02/14 01:44:06;;;;;;;;;;;17.80;42.80;;;;;;1542609;76;1222;-70
2024/02/14 01:46:08;;;;;;;;;;;17.80;42.70;;;;;;1554578;76;755;-70
2024/02/14 01:48:10;;;;;;;;;;;17.80;42.70;;;;;;1544736;75;772;-69
2024/02/14 01:50:12;;;;;;;;;;;17.80;42.70;;;;;;1542960;76;794;-69
2024/02/14 01:52:14;;;;;;;;;;;17.80;42.80;;;;;;1542800;76;586;-68
2024/02/14 01:54:17;;;;;;;;;;;17.80;42.70;;;;;;1544615;76;1151;-70
2024/02/14 01:56:19;;;;;;;;;;;17.80;42.70;;;;;;1546024;76;747;-69
2024/02/14 01:58:21;;;;;;;;;;;17.80;42.70;;;;;;1532729;76;645;-69
2024/02/14 02:00:23;;;;;;;;;;;17.80;42.70;;;;;;1544096;75;713;-71
2024/02/14 02:02:26;;;;;;;;;;;17.80;42.70;;;;;;1539476;75;1934;-70
2024/02/14 02:04:28;;;;;;;;;;;17.80;42.70;;;;;;1542699;76;1175;-69
2024/02/14 02:06:30;;;;;;;;;;;17.80;42.80;;;;;;1544890;76;902;-71
2024/02/14 02:08:32;;;;;;;;;;;17.70;42.70;;;;;;1547700;75;1496;-69
2024/02/14 02:10:34;;;;;;;;;;;17.80;42.70;;;;;;1544784;76;728;-70
2024/02/14 02:12:38;;;;;;;;;;;17.80;42.80;;;;;;1551276;75;679;-69
2024/02/14 02:14:40;;;;;;;;;;;17.80;42.80;;;;;;1544280;76;1137;-69
2024/02/14 02:16:42;;;;;;;;;;;17.80;42.70;;;;;;1544424;76;597;-67
2024/02/14 02:18:44;;;;;;;;;;;17.80;42.80;;;;;;1536190;75;730;-68
2024/02/14 02:20:46;;;;;;;;;;;17.70;42.70;;;;;;1551976;76;690;-70
2024/02/14 02:22:51;;;;;;;;;;;17.80;42.70;;;;;;1544023;76;1905;-70
2024/02/14 02:24:53;;;;;;;;;;;17.70;42.80;;;;;;1542166;76;1146;-69
2024/02/14 02:26:56;;;;;;;;;;;17.80;42.70;;;;;;1547314;76;663;-70
2024/02/14 02:28:59;;;;;;;;;;;17.80;42.70;;;;;;1536560;76;640;-69
2024/02/14 02:31:01;;;;;;;;;;;17.80;42.70;;;;;;1543727;76;787;-69
2024/02/14 02:33:03;;;;;;;;;;;17.80;42.70;;;;;;1543904;76;1141;-69
2024/02/14 02:35:05;;;;;;;;;;;17.80;42.70;;;;;;1549934;76;776;-68
2024/02/14 02:37:09;;;;;;;;;;;17.70;42.70;;;;;;1551579;75;609;-69
2024/02/14 02:39:12;;;;;;;;;;;17.80;42.70;;;;;;1546505;75;715;-69
2024/02/14 02:41:14;;;;;;;;;;;17.80;42.70;;;;;;1546440;75;661;-69
2024/02/14 02:43:15;;;;;;;;;;;17.80;42.70;;;;;;1546164;76;1939;-69
2024/02/14 02:45:17;;;;;;;;;;;17.80;42.70;;;;;;1550710;75;739;-70
2024/02/14 02:47:19;;;;;;;;;;;17.80;42.70;;;;;;1548177;75;690;-69
2024/02/14 02:49:21;;;;;;;;;;;17.80;42.70;;;;;;1545701;76;753;-69
2024/02/14 02:51:24;;;;;;;;;;;17.80;42.70;;;;;;1531219;75;739;-69
2024/02/14 02:53:25;;;;;;;;;;;17.70;42.70;;;;;;1552644;75;1145;-69
2024/02/14 02:55:27;;;;;;;;;;;17.80;42.60;;;;;;1537979;75;723;-70
2024/02/14 02:57:31;;;;;;;;;;;17.80;42.70;;;;;;1552411;76;697;-69
2024/02/14 02:59:33;;;;;;;;;;;17.70;42.70;;;;;;1553396;75;1146;-70
2024/02/14 03:01:38;;;;;;;;;;;17.70;42.60;;;;;;1551515;75;658;-70
2024/02/14 03:03:41;;;;;;;;;;;17.80;42.70;;;;;;1541413;76;1909;-69
2024/02/14 03:05:44;;;;;;;;;;;17.80;42.70;;;;;;1508393;77;768;-67
2024/02/14 03:07:47;;;;;;;;;;;17.80;42.70;;;;;;1552221;75;1546;-69
2024/02/14 03:09:49;;;;;;;;;;;17.80;42.70;;;;;;1544744;76;695;-70
2024/02/14 03:11:51;;;;;;;;;;;17.70;42.70;;;;;;1545564;75;700;-70
2024/02/14 03:13:53;;;;;;;;;;;17.80;42.70;;;;;;1549032;76;1152;-71
2024/02/14 03:15:58;;;;;;;;;;;17.70;42.70;;;;;;1542537;76;597;-69
2024/02/14 03:17:58;;;;;;;;;;;17.80;42.60;;;;;;1547768;76;990;-69
2024/02/14 03:20:00;;;;;;;;;;;17.80;42.70;;;;;;1542051;75;745;-70
2024/02/14 03:22:05;;;;;;;;;;;17.70;42.70;;;;;;1543936;76;735;-70
2024/02/14 03:24:09;;;;;;;;;;;17.70;42.60;;;;;;1549485;75;1936;-68
2024/02/14 03:26:10;;;;;;;;;;;17.80;42.70;;;;;;1544609;75;1134;-69
2024/02/14 03:28:13;;;;;;;;;;;17.70;42.70;;;;;;1543375;75;746;-71
2024/02/14 03:30:16;;;;;;;;;;;17.80;42.70;;;;;;1546313;75;618;-69
2024/02/14 03:32:19;;;;;;;;;;;17.80;42.70;;;;;;1553230;75;710;-70
2024/02/14 03:34:21;;;;;;;;;;;17.80;42.70;;;;;;1545393;76;1171;-70
2024/02/14 03:36:24;;;;;;;;;;;17.80;42.70;;;;;;1549632;75;856;-69
2024/02/14 03:38:27;;;;;;;;;;;17.80;42.60;;;;;;1546656;76;696;-70
2024/02/14 03:40:30;;;;;;;;;;;17.80;42.70;;;;;;1548306;75;933;-70
2024/02/14 03:42:31;;;;;;;;;;;17.70;42.60;;;;;;1542613;75;1921;-70
2024/02/14 03:44:34;;;;;;;;;;;17.70;42.70;;;;;;1550375;76;1123;-71
2024/02/14 03:46:36;;;;;;;;;;;17.80;42.70;;;;;;1543135;76;711;-70
2024/02/14 03:48:38;;;;;;;;;;;17.80;42.70;;;;;;1555715;75;706;-70
2024/02/14 03:50:40;;;;;;;;;;;17.80;42.70;;;;;;1543902;75;758;-69
2024/02/14 03:52:46;;;;;;;;;;;17.70;42.70;;;;;;1550082;75;668;-68
2024/02/14 03:54:45;;;;;;;;;;;17.70;42.60;;;;;;1542519;76;1127;-70
2024/02/14 03:56:47;;;;;;;;;;;17.70;42.70;;;;;;1544130;76;661;-69
2024/02/14 03:58:49;;;;;;;;;;;17.70;42.60;;;;;;1544125;75;613;-70
2024/02/14 04:00:51;;;;;;;;;;;17.80;42.60;;;;;;1541929;76;699;-69
2024/02/14 04:02:58;;;;;;;;;;;17.80;42.60;;;;;;1538919;76;1919;-69
2024/02/14 04:04:57;;;;;;;;;;;17.80;42.70;;;;;;1554535;75;1182;-67
2024/02/14 04:07:00;;;;;;;;;;;17.80;42.70;;;;;;1547969;75;1462;-66
2024/02/14 04:09:02;;;;;;;;;;;17.80;42.60;;;;;;1544865;75;1208;-69
2024/02/14 04:11:04;;;;;;;;;;;17.70;42.60;;;;;;1550830;75;720;-71
2024/02/14 04:13:06;;;;;;;;;;;17.80;42.70;;;;;;1543728;76;1176;-71
2024/02/14 04:15:09;;;;;;;;;;;17.80;42.60;;;;;;1541807;75;673;-70
2024/02/14 04:17:12;;;;;;;;;;;17.80;42.60;;;;;;1537553;75;671;-69
2024/02/14 04:19:17;;;;;;;;;;;17.70;42.60;;;;;;1549462;76;723;-69
2024/02/14 04:21:18;;;;;;;;;;;17.80;42.60;;;;;;1543142;75;1125;-70
2024/02/14 04:23:19;;;;;;;;;;;17.70;42.70;;;;;;1547259;75;1953;-70
2024/02/14 04:25:22;;;;;;;;;;;17.70;42.70;;;;;;1544053;75;645;-71
2024/02/14 04:27:24;;;;;;;;;;;17.70;42.70;;;;;;1537959;76;689;-69
2024/02/14 04:29:28;;;;;;;;;;;17.70;42.70;;;;;;1547703;75;729;-69
2024/02/14 04:31:31;;;;;;;;;;;17.70;42.70;;;;;;1549908;75;2011;-69
2024/02/14 04:33:33;;;;;;;;;;;17.70;42.70;;;;;;1539513;75;1143;-71
2024/02/14 04:35:35;;;;;;;;;;;17.70;42.70;;;;;;1542722;75;665;-67
2024/02/14 04:37:37;;;;;;;;;;;17.80;42.70;;;;;;1554017;75;694;-70
2024/02/14 04:39:39;;;;;;;;;;;17.80;42.60;;;;;;1548659;75;681;-69
2024/02/14 04:41:41;;;;;;;;;;;17.70;42.70;;;;;;1542825;76;729;-70
2024/02/14 04:43:43;;;;;;;;;;;17.80;42.70;;;;;;1540799;75;1926;-69
2024/02/14 04:45:45;;;;;;;;;;;17.70;42.70;;;;;;1547309;75;687;-69
2024/02/14 04:47:47;;;;;;;;;;;17.70;42.60;;;;;;1552117;76;724;-69
2024/02/14 04:49:49;;;;;;;;;;;17.70;42.60;;;;;;1545364;76;680;-69
2024/02/14 04:51:52;;;;;;;;;;;17.80;42.70;;;;;;1543860;75;783;-68
2024/02/14 04:53:58;;;;;;;;;;;17.70;42.60;;;;;;1546130;75;1114;-70
2024/02/14 04:55:58;;;;;;;;;;;17.70;42.60;;;;;;1551135;75;1154;-68
2024/02/14 04:58:00;;;;;;;;;;;17.70;42.60;;;;;;1546825;76;676;-70
2024/02/14 05:00:04;;;;;;;;;;;17.80;42.60;;;;;;1547183;76;719;-71
2024/02/14 05:02:06;;;;;;;;;;;17.70;42.60;;;;;;1540098;75;1102;-71
2024/02/14 05:04:28;;;;;;;;;;;17.70;42.60;;;;;;1536193;76;1925;-70
2024/02/14 05:06:29;;;;;;;;;;;17.80;42.60;;;;;;1541083;76;616;-69
2024/02/14 05:08:32;;;;;;;;;;;17.70;42.60;;;;;;1532539;76;1327;-69
2024/02/14 05:10:34;;;;;;;;;;;17.80;42.60;;;;;;1536032;76;720;-71
2024/02/14 05:12:35;;;;;;;;;;;17.70;42.60;;;;;;1516168;77;609;-68
2024/02/14 05:14:40;;;;;;;;;;;17.70;42.70;;;;;;1537130;76;1198;-69
2024/02/14 05:16:42;;;;;;;;;;;17.70;42.70;;;;;;1557911;74;683;-68
2024/02/14 05:18:44;;;;;;;;;;;17.70;42.70;;;;;;1567651;74;753;-71
2024/02/14 05:20:46;;;;;;;;;;;17.80;42.70;;;;;;1536464;76;744;-69
2024/02/14 05:22:48;;;;;;;;;;;17.80;42.60;;;;;;1563383;74;779;-70
2024/02/14 05:24:50;;;;;;;;;;;17.70;42.70;;;;;;1542496;76;1935;-70
2024/02/14 05:26:52;;;;;;;;;;;17.70;42.60;;;;;;1537110;76;661;-70
2024/02/14 05:28:54;;;;;;;;;;;17.70;42.60;;;;;;1544433;75;679;-70
2024/02/14 05:30:57;;;;;;;;;;;17.70;42.70;;;;;;1599872;73;708;-69
2024/02/14 05:32:59;;;;;;;;;;;17.70;42.70;;;;;;1606766;73;842;-69
2024/02/14 05:35:01;;;;;;;;;;;17.70;42.60;;;;;;1605009;73;1053;-68
2024/02/14 05:37:03;;;;;;;;;;;17.70;42.70;;;;;;1609630;73;742;-70
2024/02/14 05:39:08;;;;;;;;;;;17.70;42.60;;;;;;1608339;73;926;-69
2024/02/14 05:41:11;;;;;;;;;;;17.80;42.70;;;;;;1604405;73;751;-69
2024/02/14 05:43:13;;;;;;;;;;;17.70;42.60;;;;;;1602476;73;1907;-70
2024/02/14 05:45:15;;;;;;;;;;;17.70;42.60;;;;;;1600738;73;698;-69
2024/02/14 05:47:18;;;;;;;;;;;17.70;42.60;;;;;;1590870;73;708;-70
2024/02/14 05:49:21;;;;;;;;;;;17.70;42.70;;;;;;1614440;73;774;-70
2024/02/14 05:51:23;;;;;;;;;;;17.70;42.60;;;;;;1602434;73;872;-69
2024/02/14 05:53:25;;;;;;;;;;;17.70;42.70;;;;;;1595919;73;1171;-69
2024/02/14 05:55:27;;;;;;;;;;;17.70;42.70;;;;;;1604424;73;748;-69
2024/02/14 05:57:29;;;;;;;;;;;17.70;42.70;;;;;;1602061;73;733;-70
2024/02/14 05:59:32;;;;;;;;;;;17.70;42.60;;;;;;1607635;73;753;-69
2024/02/14 06:01:35;;;;;;;;;;;17.70;42.70;;;;;;1601890;73;667;-70
2024/02/14 06:03:37;;;;;;;;;;;17.70;42.70;;;;;;1604099;73;1905;-69
2024/02/14 06:05:39;;;;;;;;;;;17.70;42.60;;;;;;1604729;73;745;-69
2024/02/14 06:07:41;;;;;;;;;;;17.70;42.60;;;;;;1595783;73;1390;-68
2024/02/14 06:09:43;;;;;;;;;;;17.80;42.60;;;;;;1594978;73;694;-69
2024/02/14 06:11:45;;;;;;;;;;;17.80;42.60;;;;;;1612745;73;741;-71
2024/02/14 06:13:48;;;;;;;;;;;17.70;42.60;;;;;;1601937;73;1134;-68
2024/02/14 06:15:49;;;;;;;;;;;17.70;42.70;;;;;;1607253;73;740;-70
2024/02/14 06:17:51;;;;;;;;;;;17.70;42.60;;;;;;1598117;73;696;-70
2024/02/14 06:19:54;;;;;;;;;;;17.70;42.60;;;;;;1594013;73;707;-70
2024/02/14 06:21:55;;;;;;;;;;;17.70;41.50;;;;;;1613227;73;720;-71
2024/02/14 06:23:58;;;;;;;;;;;17.70;41.10;;;;;;1606745;73;1970;-69
2024/02/14 06:26:00;;;;;;;;;;;17.70;41.00;;;;;;1601450;73;582;-71
2024/02/14 06:28:02;;;;;;;;;;;17.60;40.90;;;;;;1612448;73;757;-72
2024/02/14 06:30:04;;;;;;;;;;;17.70;41.00;;;;;;1601938;73;807;-71
2024/02/14 06:32:06;;;;;;;;;;;17.60;41.00;;;;;;1610337;73;744;-72
2024/02/14 06:34:08;;;;;;;;;;;17.50;41.10;;;;;;1605834;73;1150;-70
2024/02/14 06:36:10;;;;;;;;;;;17.60;41.20;;;;;;1599881;73;709;-72
2024/02/14 06:38:12;;;;;;;;;;;17.60;41.20;;;;;;1602476;73;669;-71
2024/02/14 06:40:14;;;;;;;;;;;17.60;41.30;;;;;;1603027;72;674;-67
2024/02/14 06:42:17;;;;;;;;;;;17.50;41.50;;;;;;1606234;73;728;-69
2024/02/14 06:44:19;;;;;;;;;;;17.50;41.50;;;;;;1601979;73;1922;-71
2024/02/14 06:46:20;;;;;;;;;;;17.50;41.20;;;;;;1589316;73;707;-70
2024/02/14 06:48:23;;;;;;;;;;;17.50;41.80;;;;;;1606410;73;688;-71
2024/02/14 06:50:25;;;;;;;;;;;17.50;42.00;;;;;;1606909;73;682;-72
2024/02/14 06:52:27;;;;;;;;;;;17.50;42.10;;;;;;1598254;72;656;-69
2024/02/14 06:54:29;;;;;;;;;;;17.50;42.30;;;;;;1603408;73;1112;-70
2024/02/14 06:56:31;;;;;;;;;;;17.50;42.40;;;;;;1603425;73;650;-70
2024/02/14 06:58:33;;;;;;;;;;;17.60;42.40;;;;;;1615174;73;766;-69
2024/02/14 07:00:35;;;;;;;;;;;17.50;42.40;;;;;;1599138;73;781;-70
2024/02/14 07:02:37;;;;;;;;;;;17.60;42.40;;;;;;1604611;73;726;-71
2024/02/14 07:04:38;;;;;;;;;;;17.60;42.50;;;;;;1606081;73;1946;-74
2024/02/14 07:06:40;;;;;;;;;;;17.60;42.50;;;;;;1598139;73;786;-74
2024/02/14 07:08:42;;;;;;;;;;;17.60;42.50;;;;;;1607105;73;1679;-74
2024/02/14 07:10:44;;;;;;;;;;;17.60;42.50;;;;;;1610646;73;703;-76
2024/02/14 07:12:46;;;;;;;;;;;17.60;42.50;;;;;;1614075;73;716;-75
2024/02/14 07:14:48;;;;;;;;;;;17.60;42.50;;;;;;1609685;73;1127;-73
2024/02/14 07:16:50;;;;;;;;;;;17.60;42.50;;;;;;1600780;73;665;-75
2024/02/14 07:18:52;;;;;;;;;;;17.70;42.50;;;;;;1614224;73;747;-75
2024/02/14 07:20:54;;;;;;;;;;;17.60;42.50;;;;;;1609973;73;739;-72
2024/02/14 07:22:56;;;;;;;;;;;17.60;42.50;;;;;;1605407;73;660;-74
2024/02/14 07:24:58;;;;;;;;;;;17.70;42.60;;;;;;1604881;73;1933;-75
2024/02/14 07:27:00;;;;;;;;;;;17.70;42.50;;;;;;1604572;73;769;-75
2024/02/14 07:29:03;;;;;;;;;;;17.70;42.60;;;;;;1613834;72;680;-76
2024/02/14 07:31:05;;;;;;;;;;;17.60;42.50;;;;;;1608842;73;642;-75
2024/02/14 07:33:08;;;;;;;;;;;17.70;42.60;;;;;;1604154;73;1139;-74
2024/02/14 07:35:09;;;;;;;;;;;17.70;42.60;;;;;;1611976;73;718;-74
2024/02/14 07:37:11;;;;;;;;;;;17.70;42.60;;;;;;1604738;73;645;-74
2024/02/14 07:39:13;;;;;;;;;;;17.60;42.50;;;;;;1616651;73;689;-74
2024/02/14 07:41:15;;;;;;;;;;;17.70;42.60;;;;;;1615466;73;743;-75
2024/02/14 07:43:17;;;;;;;;;;;17.70;42.60;;;;;;1605401;73;1143;-74
2024/02/14 07:45:19;;;;;;;;;;;17.70;42.60;;;;;;1611163;73;1934;-74
2024/02/14 07:47:21;;;;;;;;;;;17.70;42.60;;;;;;1615281;73;621;-74
2024/02/14 07:49:22;;;;;;;;;;;17.70;42.60;;;;;;1614332;73;670;-74
2024/02/14 07:51:25;;;;;;;;;;;17.70;42.50;;;;;;1604391;73;687;-75
2024/02/14 07:53:27;;;;;;;;;;;17.70;42.60;;;;;;1604153;73;1111;-74
2024/02/14 07:55:29;;;;;;;;;;;17.70;42.60;;;;;;1615527;73;961;-75
2024/02/14 07:57:31;;;;;;;;;;;17.70;42.60;;;;;;1608191;73;718;-73
2024/02/14 07:59:33;;;;;;;;;;;17.60;42.40;;;;;;1611279;73;671;-74
2024/02/14 08:01:35;;;;;;;;;;;17.70;42.50;;;;;;1616673;73;760;-75
2024/02/14 08:03:37;;;;;;;;;;;17.70;42.60;;;;;;1605122;73;1147;-75
2024/02/14 08:05:41;;;;;;;;;;;17.70;42.50;;;;;;1613090;73;1959;-74
2024/02/14 08:07:42;;;;;;;;;;;17.70;42.50;;;;;;1614675;73;1532;-72
2024/02/14 08:09:44;;;;;;;;;;;17.70;42.50;;;;;;1611387;73;717;-74
2024/02/14 08:11:46;;;;;;;;;;;17.70;42.50;;;;;;1617215;73;754;-74
2024/02/14 08:13:48;;;;;;;;;;;17.60;42.30;;;;;;1611028;73;1149;-74
2024/02/14 08:15:50;;;;;;;;;;;17.70;42.50;;;;;;1613840;73;741;-75
2024/02/14 08:17:55;;;;;;;;;;;17.70;42.60;;;;;;1611719;73;680;-74
2024/02/14 08:19:55;;;;;;;;;;;17.70;42.50;;;;;;1610462;73;1192;-73
2024/02/14 08:21:59;;;;;;;;;;;17.70;42.50;;;;;;1608569;73;700;-75
2024/02/14 08:24:01;;;;;;;;;;;17.80;42.40;;;;;;1613749;73;1163;-73
2024/02/14 08:26:10;;;;;;;;;;;17.70;42.40;;;;;;1610943;72;1923;-74
2024/02/14 08:28:07;;;;;;;;;;;17.70;42.40;;;;;;1607999;73;1127;-75
2024/02/14 08:30:09;;;;;;;;;;;17.70;42.40;;;;;;1602420;73;656;-72
2024/02/14 08:32:11;;;;;;;;;;;17.70;42.40;;;;;;1620006;73;726;-75
2024/02/14 08:34:13;;;;;;;;;;;17.70;42.40;;;;;;1608302;73;1174;-74
2024/02/14 08:36:16;;;;;;;;;;;17.70;42.40;;;;;;1606411;73;662;-70
2024/02/14 08:38:18;;;;;;;;;;;17.80;42.40;;;;;;1613361;73;702;-74
2024/02/14 08:40:20;;;;;;;;;;;17.70;42.40;;;;;;1602935;73;639;-76
2024/02/14 08:42:22;;;;;;;;;;;17.70;42.40;;;;;;1613556;73;719;-75
2024/02/14 08:44:24;;;;;;;;;;;17.70;42.40;;;;;;1600775;73;2059;-75
2024/02/14 08:46:26;;;;;;;;;;;17.70;42.40;;;;;;1610663;73;710;-75
2024/02/14 08:48:30;;;;;;;;;;;17.70;42.40;;;;;;1601916;73;672;-75
2024/02/14 08:50:32;;;;;;;;;;;17.80;42.40;;;;;;1607525;73;1528;-74
2024/02/14 08:52:33;;;;;;;;;;;17.60;42.30;;;;;;1599515;72;656;-75
2024/02/14 08:54:35;;;;;;;;;;;17.70;42.40;;;;;;1600978;73;1106;-75
2024/02/14 08:56:37;;;;;;;;;;;17.70;42.40;;;;;;1587962;74;733;-76
2024/02/14 08:58:39;;;;;;;;;;;17.80;42.30;;;;;;1571984;74;734;-77
2024/02/14 09:00:41;;;;;;;;;;;17.70;42.40;;;;;;1574482;74;589;-76
2024/02/14 09:02:43;;;;;;;;;;;17.70;42.30;;;;;;1571675;74;743;-74
2024/02/14 09:04:45;;;;;;;;;;;17.70;42.30;;;;;;1566700;74;1943;-76
2024/02/14 09:06:46;;;;;;;;;;;17.70;42.30;;;;;;1572623;74;805;-76
2024/02/14 09:08:50;;;;;;;;;;;17.70;42.30;;;;;;1569446;74;753;-76
2024/02/14 09:10:52;;;;;;;;;;;17.70;42.30;;;;;;1570221;74;776;-75
2024/02/14 09:12:54;;;;;;;;;;;17.70;42.30;;;;;;1572001;74;718;-76
2024/02/14 09:14:56;;;;;;;;;;;17.70;42.30;;;;;;1552112;76;1106;-73
2024/02/14 09:16:58;;;;;;;;;;;17.70;42.30;;;;;;1571754;74;704;-75
2024/02/14 09:19:01;;;;;;;;;;;17.70;42.30;;;;;;1540478;75;745;-77
2024/02/14 09:21:07;;;;;;;;;;;17.70;42.30;;;;;;1611892;73;725;-77
2024/02/14 09:23:06;;;;;;;;;;;17.70;42.30;;;;;;1610478;73;1131;-77
2024/02/14 09:25:11;;;;;;;;;;;17.70;42.30;;;;;;1610212;73;1943;-75
2024/02/14 09:27:13;;;;;;;;;;;17.70;42.20;;;;;;1610571;73;667;-77
2024/02/14 09:29:15;;;;;;;;;;;17.80;42.30;;;;;;1610042;73;743;-69
2024/02/14 09:31:20;;;;;;;;;;;17.70;42.30;;;;;;1611472;73;687;-76
2024/02/14 09:33:21;;;;;;;;;;;17.80;42.30;;;;;;1609151;73;1145;-75
2024/02/14 09:35:24;;;;;;;;;;;17.70;42.20;;;;;;1616628;73;748;-76
2024/02/14 09:37:28;;;;;;;;;;;17.80;42.20;;;;;;1606636;73;729;-76
2024/02/14 09:39:30;;;;;;;;;;;17.70;42.20;;;;;;1605603;72;711;-77
2024/02/14 09:41:33;;;;;;;;;;;17.70;42.20;;;;;;1610685;73;741;-76
2024/02/14 09:43:35;;;;;;;;;;;17.70;42.20;;;;;;1609294;73;1136;-76
2024/02/14 09:45:38;;;;;;;;;;;17.80;42.20;;;;;;1613352;71;1925;-76
2024/02/14 09:47:40;;;;;;;;;;;17.70;42.20;;;;;;1603667;73;622;-76
2024/02/14 09:49:42;;;;;;;;;;;17.70;42.20;;;;;;1601229;73;731;-73
2024/02/14 09:51:44;;;;;;;;;;;17.70;42.20;;;;;;1615888;73;643;-74
2024/02/14 09:53:46;;;;;;;;;;;17.70;42.20;;;;;;1610328;73;1087;-72
2024/02/14 09:55:48;;;;;;;;;;;17.80;42.10;;;;;;1606958;73;687;-74
2024/02/14 09:57:50;;;;;;;;;;;17.70;42.10;;;;;;1612672;73;681;-75
2024/02/14 09:59:52;;;;;;;;;;;17.70;42.10;;;;;;1614516;73;700;-74
2024/02/14 10:01:54;;;;;;;;;;;17.70;42.10;;;;;;1606881;73;720;-76
2024/02/14 10:03:56;;;;;;;;;;;17.70;42.20;;;;;;1605441;73;1143;-73
2024/02/14 10:05:58;;;;;;;;;;;17.80;42.20;;;;;;1601755;73;1934;-72
2024/02/14 10:08:01;;;;;;;;;;;17.80;42.10;;;;;;1606586;73;1374;-72
2024/02/14 10:10:07;;;;;;;;;;;17.80;41.50;;;;;;1607199;73;742;-74
2024/02/14 10:12:09;;;;;;;;;;;17.70;41.70;;;;;;1617327;73;716;-73
2024/02/14 10:14:12;;;;;;;;;;;17.70;41.90;;;;;;1607491;73;1172;-74
2024/02/14 10:16:17;;;;;;;;;;;17.70;42.00;;;;;;1612695;73;830;-76
2024/02/14 10:18:19;;;;;;;;;;;17.70;42.10;;;;;;1612364;73;954;-76
2024/02/14 10:20:21;;;;;;;;;;;17.70;42.10;;;;;;1602490;73;750;-76
2024/02/14 10:22:23;;;;;;;;;;;17.70;42.10;;;;;;1609844;73;692;-75
2024/02/14 10:24:26;;;;;;;;;;;17.80;42.10;;;;;;1598719;73;1255;-74
2024/02/14 10:26:29;;;;;;;;;;;17.80;42.10;;;;;;1605795;73;1893;-75
2024/02/14 10:28:31;;;;;;;;;;;17.80;42.10;;;;;;1604804;73;743;-74
2024/02/14 10:30:33;;;;;;;;;;;17.80;42.10;;;;;;1568620;74;1221;-74
2024/02/14 10:32:36;;;;;;;;;;;17.70;42.10;;;;;;1537737;76;738;-72
2024/02/14 10:34:39;;;;;;;;;;;17.70;41.50;;;;;;1569667;74;1137;-74
2024/02/14 10:36:42;;;;;;;;;;;17.70;41.80;;;;;;1531856;75;1089;-74
2024/02/14 10:38:45;;;;;;;;;;;17.80;41.90;;;;;;1535377;76;1114;-74
2024/02/14 10:40:47;;;;;;;;;;;17.80;42.00;;;;;;1599593;73;1090;-73
2024/02/14 10:42:50;;;;;;;;;;;17.70;42.00;;;;;;1598150;73;1139;-74
2024/02/14 10:44:52;;;;;;;;;;;17.70;42.10;;;;;;1599183;73;1214;-73
2024/02/14 10:46:54;;;;;;;;;;;17.70;42.10;;;;;;1581478;73;1919;-75
2024/02/14 10:48:57;;;;;;;;;;;17.80;42.10;;;;;;1601096;73;1451;-71
2024/02/14 10:51:00;;;;;;;;;;;17.80;42.10;;;;;;1600147;73;1193;-74
2024/02/14 10:53:04;;;;;;;;;;;17.80;42.00;;;;;;1603695;73;1222;-73
2024/02/14 10:55:06;;;;;;;;;;;17.80;42.10;;;;;;1604132;73;1133;-73
2024/02/14 10:57:11;;;;;;;;;;;17.70;42.10;;;;;;1606800;73;1565;-74
2024/02/14 10:59:11;;;;;;;;;;;17.80;42.00;;;;;;1590511;73;1142;-75
2024/02/14 11:01:14;;;;;;;;;;;17.80;42.10;;;;;;1602925;73;1174;-75
2024/02/14 11:03:17;;;;;;;;;;;17.80;42.10;;;;;;1601620;73;1184;-74
2024/02/14 11:05:22;;;;;;;;;;;17.80;42.10;;;;;;1601053;72;1921;-74
2024/02/14 11:07:25;;;;;;;;;;;17.80;42.00;;;;;;1602346;72;1443;-74
2024/02/14 11:09:36;;;;;;;;;;;17.80;42.00;;;;;;1598337;73;1140;-76
2024/02/14 11:11:38;;;;;;;;;;;17.80;42.00;;;;;;1597181;73;1154;-75
2024/02/14 11:13:41;;;;;;;;;;;17.80;42.00;;;;;;1595825;73;1160;-74
2024/02/14 11:15:44;;;;;;;;;;;17.80;42.00;;;;;;1602820;73;1389;-76
2024/02/14 11:17:48;;;;;;;;;;;17.80;42.00;;;;;;1597046;73;1481;-75
2024/02/14 11:19:51;;;;;;;;;;;17.80;42.00;;;;;;1600946;73;2006;-75
2024/02/14 11:21:53;;;;;;;;;;;17.80;42.00;;;;;;1604717;73;1449;-74
2024/02/14 11:23:55;;;;;;;;;;;17.80;42.00;;;;;;1600336;73;1129;-74
2024/02/14 11:26:08;;;;;;;;;;;17.80;42.00;;;;;;1605314;73;1909;-71
2024/02/14 11:28:19;;;;;;;;;;;17.80;42.00;;;;;;1599045;73;1082;-74
2024/02/14 11:30:29;;;;;;;;;;;17.80;42.00;;;;;;1595408;73;1085;-75
2024/02/14 11:32:32;;;;;;;;;;;17.90;42.10;;;;;;1593363;73;1437;-75
2024/02/14 11:34:34;;;;;;;;;;;17.90;42.10;;;;;;1602594;73;1212;-75
2024/02/14 11:36:35;;;;;;;;;;;17.80;42.00;;;;;;1595277;73;1458;-75
2024/02/14 11:38:37;;;;;;;;;;;17.80;42.10;;;;;;1593064;73;1483;-75
2024/02/14 11:40:40;;;;;;;;;;;17.80;42.00;;;;;;1600792;73;1192;-74
2024/02/14 11:42:42;;;;;;;;;;;17.80;42.00;;;;;;1595888;73;1392;-72
2024/02/14 11:44:46;;;;;;;;;;;17.80;42.00;;;;;;1608795;73;1130;-74
2024/02/14 11:46:48;;;;;;;;;;;17.80;42.00;;;;;;1605567;73;1947;-74
2024/02/14 11:48:49;;;;;;;;;;;17.80;42.00;;;;;;1604964;73;1132;-75
2024/02/14 11:50:52;;;;;;;;;;;17.90;42.10;;;;;;1602527;72;1387;-74
2024/02/14 11:52:54;;;;;;;;;;;17.80;42.00;;;;;;1602750;73;1152;-74
2024/02/14 11:54:57;;;;;;;;;;;17.80;42.00;;;;;;1601156;73;1146;-71
2024/02/14 11:56:59;;;;;;;;;;;17.80;41.90;;;;;;1598495;73;1370;-74
2024/02/14 11:59:04;;;;;;;;;;;17.90;42.10;;;;;;1564194;74;1266;-74
2024/02/14 12:01:06;;;;;;;;;;;17.80;41.90;;;;;;1609319;73;1122;-74
2024/02/14 12:03:08;;;;;;;;;;;17.80;42.00;;;;;;1596337;73;1504;-75
2024/02/14 12:05:10;;;;;;;;;;;17.90;42.10;;;;;;1609729;73;1427;-74
2024/02/14 12:07:13;;;;;;;;;;;17.80;41.90;;;;;;1603156;73;1948;-75
2024/02/14 12:09:14;;;;;;;;;;;17.90;42.10;;;;;;1602919;73;1085;-78